Terminal Aerodrome Forecast
Issued by NWS

Home | Current Version | Previous Version | Text Only | Print | Product List | Glossary On
Versions: 1 2 3 4 5 6 7 8 9 10 11 12 13 14 15
000
FTUS46 KLOX 221100
TAFPMD
TAF
KPMD 221120Z 2212/2312 VRB05KT P6SM SCT150
     FM221700 24014KT P6SM SKC
     FM222000 24015G25KT P6SM SKC
     FM230200 24012KT P6SM SKC
     FM230600 20007KT P6SM SKC=

USA.gov is the U.S. government's official web portal to all federal, state and local government web resources and services.